Time;durP1;ratioP1;P1;durP2;ratioP2;P2;SDS_P1;SDS_P2;PMS_P1;PMS_P2;Temp;Humidity;BMP_temperature;BMP_pressure;BME280_temperature;BME280_humidity;BME280_pressure;Samples;Min_cycle;Max_cycle;Signal;HPM_P1;HPM_P2
2022/01/27 00:02:51;;;;;;;42.67;22.85;;;5.30;99.90;;;;;;5075501;28;20029;-72
2022/01/27 00:05:22;;;;;;;40.35;24.08;;;5.30;99.90;;;;;;5075765;28;20326;-72
2022/01/27 00:10:48;;;;;;;44.05;23.85;;;5.20;99.90;;;;;;5085816;28;20484;-74
2022/01/27 00:13:16;;;;;;;49.30;25.20;;;5.30;99.90;;;;;;5095570;28;20089;-73
2022/01/27 00:15:46;;;;;;;44.40;23.67;;;5.30;99.90;;;;;;5095701;28;20055;-73
2022/01/27 00:18:15;;;;;;;43.55;22.38;;;5.40;99.90;;;;;;5095382;28;20048;-72
2022/01/27 00:20:42;;;;;;;37.38;22.23;;;5.40;99.90;;;;;;5095632;28;20036;-73
2022/01/27 00:23:08;;;;;;;43.05;24.48;;;5.40;99.90;;;;;;5094022;28;20036;-74
2022/01/27 00:25:34;;;;;;;43.00;23.52;;;5.40;99.90;;;;;;5095263;28;20089;-73
2022/01/27 00:28:00;;;;;;;44.33;24.33;;;5.50;99.90;;;;;;5095001;28;20040;-73
2022/01/27 00:30:26;;;;;;;40.13;23.17;;;5.60;99.90;;;;;;5095367;28;20016;-73
2022/01/27 00:32:52;;;;;;;41.10;22.42;;;5.50;99.90;;;;;;5095227;28;20023;-73
2022/01/27 00:35:18;;;;;;;44.70;23.50;;;5.50;99.90;;;;;;5095177;28;20482;-73
2022/01/27 00:37:43;;;;;;;40.33;23.25;;;5.40;99.90;;;;;;5095010;28;20052;-75
2022/01/27 00:40:12;;;;;;;38.25;20.00;;;5.40;99.90;;;;;;5095793;28;20036;-75
2022/01/27 00:42:39;;;;;;;40.50;23.48;;;5.40;99.90;;;;;;5096432;28;20043;-73
2022/01/27 00:45:06;;;;;;;39.60;23.75;;;5.30;99.90;;;;;;5096487;28;20050;-73
2022/01/27 00:47:32;;;;;;;39.97;23.60;;;5.40;99.90;;;;;;5094926;28;20062;-74
2022/01/27 00:49:57;;;;;;;42.03;24.52;;;5.30;99.90;;;;;;5095658;28;20024;-74
2022/01/27 00:52:31;;;;;;;40.88;23.08;;;5.30;99.90;;;;;;5094926;28;20436;-74
2022/01/27 00:54:57;;;;;;;35.28;20.35;;;5.50;99.90;;;;;;5094835;28;20036;-74
2022/01/27 00:57:46;;;;;;;38.95;21.25;;;5.60;99.90;;;;;;5094764;28;20039;-74
2022/01/27 01:00:13;;;;;;;37.10;22.30;;;5.40;99.90;;;;;;5094634;28;20031;-74
2022/01/27 01:03:28;;;;;;;41.17;22.80;;;5.40;99.90;;;;;;5094154;28;20067;-74
2022/01/27 01:07:55;;;;;;;39.33;21.98;;;5.40;99.90;;;;;;5094447;28;20094;-74
2022/01/27 01:15:38;;;;;;;41.50;22.67;;;5.40;99.90;;;;;;5073994;28;20021;-74
2022/01/27 01:31:33;;;;;;;45.40;22.58;;;5.10;99.90;;;;;;5094037;28;20054;-74
2022/01/27 01:34:21;;;;;;;49.25;24.25;;;5.10;99.90;;;;;;5094252;28;20060;-74
2022/01/27 01:37:05;;;;;;;44.40;22.08;;;5.10;99.90;;;;;;5094171;28;20040;-74
2022/01/27 01:39:36;;;;;;;40.10;20.70;;;5.10;99.90;;;;;;5093941;28;20036;-74
2022/01/27 01:42:08;;;;;;;36.17;21.58;;;5.20;99.90;;;;;;5092840;28;20036;-74
2022/01/27 01:44:34;;;;;;;48.10;23.50;;;5.20;99.90;;;;;;5092667;28;20035;-73
2022/01/27 01:47:01;;;;;;;48.08;23.83;;;5.20;99.90;;;;;;5094112;28;20028;-74
2022/01/27 01:49:27;;;;;;;48.80;23.73;;;5.30;99.90;;;;;;5093647;28;20035;-73
2022/01/27 01:52:02;;;;;;;39.95;22.88;;;5.30;99.90;;;;;;5093441;28;20059;-74
2022/01/27 01:54:28;;;;;;;40.92;19.55;;;5.30;99.90;;;;;;5093830;28;20131;-74
2022/01/27 01:56:54;;;;;;;45.33;22.38;;;5.20;99.90;;;;;;5093779;28;20507;-74
2022/01/27 01:59:20;;;;;;;45.20;22.60;;;5.10;99.90;;;;;;5093566;28;20036;-74
2022/01/27 02:01:46;;;;;;;46.30;23.73;;;5.20;99.90;;;;;;5096191;28;20357;-74
2022/01/27 02:04:12;;;;;;;46.67;23.17;;;5.10;99.90;;;;;;5094694;28;20478;-74
2022/01/27 02:06:47;;;;;;;42.70;23.15;;;5.20;99.90;;;;;;5094499;28;20051;-75
2022/01/27 02:09:25;;;;;;;43.10;22.75;;;5.30;99.90;;;;;;5092580;28;20365;-74
2022/01/27 02:18:01;;;;;;;39.90;23.27;;;5.10;99.90;;;;;;5052967;28;20047;-75
2022/01/27 02:20:28;;;;;;;37.58;20.38;;;5.20;99.90;;;;;;5070440;28;20043;-75
2022/01/27 02:22:54;;;;;;;47.08;23.40;;;5.20;99.90;;;;;;5072237;28;20501;-75
2022/01/27 02:25:20;;;;;;;47.67;24.13;;;5.20;99.90;;;;;;5073347;28;20035;-75
2022/01/27 02:27:46;;;;;;;38.45;22.40;;;5.20;99.90;;;;;;5090600;28;20030;-74
2022/01/27 02:30:12;;;;;;;44.05;22.33;;;5.20;99.90;;;;;;5093481;28;20093;-75
2022/01/27 02:32:38;;;;;;;40.72;21.77;;;5.30;99.90;;;;;;5093203;28;20032;-75
2022/01/27 02:35:04;;;;;;;41.90;22.52;;;5.20;99.90;;;;;;5092843;28;20103;-75
2022/01/27 02:37:30;;;;;;;46.20;21.05;;;5.30;99.90;;;;;;5093231;28;20040;-74
2022/01/27 02:39:56;;;;;;;32.42;16.00;;;5.30;99.90;;;;;;5093188;28;20031;-74
2022/01/27 02:42:33;;;;;;;44.05;21.92;;;5.30;99.90;;;;;;5093355;28;20032;-75
2022/01/27 02:45:13;;;;;;;32.75;17.13;;;5.20;99.90;;;;;;5093156;28;20027;-75
2022/01/27 02:47:39;;;;;;;40.38;21.02;;;5.30;99.90;;;;;;5091789;28;20025;-75
2022/01/27 02:50:06;;;;;;;37.75;21.17;;;5.30;99.90;;;;;;5092576;28;20028;-74
2022/01/27 02:52:32;;;;;;;40.63;21.88;;;5.40;99.90;;;;;;5091715;28;20115;-75
2022/01/27 02:54:58;;;;;;;47.45;21.83;;;5.50;99.90;;;;;;5093112;28;20062;-75
2022/01/27 02:57:24;;;;;;;38.08;19.05;;;5.50;99.90;;;;;;5092937;28;20070;-74
2022/01/27 02:59:51;;;;;;;43.38;20.98;;;5.50;99.90;;;;;;5092958;28;20533;-75
2022/01/27 03:02:18;;;;;;;40.63;17.00;;;5.50;99.90;;;;;;5092801;28;20103;-74
2022/01/27 03:04:44;;;;;;;28.40;13.50;;;5.60;99.90;;;;;;5092679;28;20032;-74
2022/01/27 03:07:10;;;;;;;40.00;20.23;;;5.60;99.90;;;;;;5093072;28;20384;-75
2022/01/27 03:09:36;;;;;;;38.67;19.38;;;5.60;99.90;;;;;;5087838;28;20428;-74
2022/01/27 03:12:07;;;;;;;32.20;17.60;;;5.70;99.90;;;;;;5076449;28;20067;-74
2022/01/27 03:14:34;;;;;;;31.33;14.93;;;5.70;99.90;;;;;;5073457;28;20439;-74
2022/01/27 03:17:02;;;;;;;37.03;20.70;;;5.70;99.90;;;;;;5072369;28;20028;-74
2022/01/27 03:19:28;;;;;;;42.67;21.35;;;5.70;99.90;;;;;;5072206;28;20041;-74
2022/01/27 03:21:55;;;;;;;41.58;18.90;;;5.70;99.90;;;;;;5072296;28;20469;-74
2022/01/27 03:24:23;;;;;;;39.13;19.27;;;5.70;99.90;;;;;;5072592;28;20028;-74
2022/01/27 03:26:50;;;;;;;37.38;19.00;;;5.70;99.90;;;;;;5085796;28;20373;-74
2022/01/27 03:29:17;;;;;;;35.78;17.83;;;5.70;99.90;;;;;;5096819;28;20016;-74
2022/01/27 03:31:44;;;;;;;35.47;18.05;;;5.70;99.90;;;;;;5095103;28;20024;-74
2022/01/27 03:34:10;;;;;;;29.10;16.25;;;5.60;99.90;;;;;;5096214;28;20024;-74
2022/01/27 03:36:35;;;;;;;37.67;17.65;;;5.60;99.90;;;;;;5096423;28;20111;-74
2022/01/27 03:39:02;;;;;;;42.28;17.98;;;5.60;99.90;;;;;;5096169;28;20039;-73
2022/01/27 03:41:32;;;;;;;34.85;16.58;;;5.50;99.90;;;;;;5096392;28;20020;-72
2022/01/27 03:43:58;;;;;;;47.85;20.88;;;5.60;99.90;;;;;;5096389;28;20024;-74
2022/01/27 03:46:23;;;;;;;39.58;18.75;;;5.50;99.90;;;;;;5096162;28;20028;-74
2022/01/27 03:48:49;;;;;;;38.33;18.50;;;5.40;99.90;;;;;;5095689;28;20376;-74
2022/01/27 03:51:15;;;;;;;39.42;19.95;;;5.50;99.90;;;;;;5096182;28;20040;-74
2022/01/27 03:53:41;;;;;;;38.75;18.00;;;5.50;99.90;;;;;;5096022;28;20032;-74
2022/01/27 03:56:07;;;;;;;34.92;17.25;;;5.50;99.90;;;;;;5096013;28;20059;-73
2022/01/27 03:58:34;;;;;;;34.45;19.20;;;5.60;99.90;;;;;;5095935;28;20449;-74
2022/01/27 04:01:02;;;;;;;37.00;19.27;;;5.60;99.90;;;;;;5094567;28;20059;-74
2022/01/27 04:03:30;;;;;;;38.92;19.60;;;5.60;99.90;;;;;;5087220;28;20020;-74
2022/01/27 04:06:03;;;;;;;38.67;17.70;;;5.60;99.90;;;;;;5075530;28;20032;-74
2022/01/27 04:08:29;;;;;;;36.83;16.45;;;5.60;99.90;;;;;;5075457;28;20037;-73
2022/01/27 04:10:55;;;;;;;38.53;19.45;;;5.70;99.90;;;;;;5091546;28;20023;-74
2022/01/27 04:13:21;;;;;;;38.35;17.05;;;5.70;99.90;;;;;;5095589;28;20469;-74
2022/01/27 04:15:47;;;;;;;38.50;16.67;;;5.70;99.90;;;;;;5095262;28;20114;-74
2022/01/27 04:18:13;;;;;;;48.20;20.00;;;5.80;99.90;;;;;;5094025;28;20044;-74
2022/01/27 04:20:40;;;;;;;38.47;19.45;;;5.70;99.90;;;;;;5095713;28;20032;-74
2022/01/27 04:23:06;;;;;;;39.70;18.92;;;5.70;99.90;;;;;;5095365;28;20124;-74
2022/01/27 04:25:32;;;;;;;41.85;19.60;;;5.60;99.90;;;;;;5095583;28;20032;-74
2022/01/27 04:28:03;;;;;;;42.88;20.58;;;5.60;99.90;;;;;;5095066;28;20036;-74
2022/01/27 04:30:29;;;;;;;41.00;18.98;;;5.50;99.90;;;;;;5094001;28;20036;-73
2022/01/27 04:32:58;;;;;;;36.42;18.35;;;5.50;99.90;;;;;;5095015;28;20125;-74
2022/01/27 04:35:27;;;;;;;38.22;18.95;;;5.50;99.90;;;;;;5094033;28;20036;-73
2022/01/27 04:40:46;;;;;;;42.05;21.13;;;5.40;99.90;;;;;;5094927;28;20032;-73
2022/01/27 04:45:50;;;;;;;37.28;18.20;;;5.40;99.90;;;;;;5094947;28;20024;-74
2022/01/27 04:48:19;;;;;;;44.92;22.33;;;5.40;99.90;;;;;;5093851;28;20044;-73
2022/01/27 04:50:44;;;;;;;45.13;20.13;;;5.40;99.90;;;;;;5094898;28;20019;-73
2022/01/27 04:53:18;;;;;;;44.80;22.00;;;5.30;99.90;;;;;;5094661;28;20036;-72
2022/01/27 04:55:43;;;;;;;40.80;20.90;;;5.30;99.90;;;;;;5094995;28;20031;-73
2022/01/27 04:58:17;;;;;;;44.58;22.52;;;5.30;99.90;;;;;;5094543;28;20051;-71
2022/01/27 05:00:43;;;;;;;51.22;22.60;;;5.30;99.90;;;;;;5094087;28;20032;-73
2022/01/27 05:03:33;;;;;;;40.17;22.25;;;5.40;99.90;;;;;;5094722;28;20103;-74
2022/01/27 05:05:58;;;;;;;43.13;21.50;;;5.40;99.90;;;;;;5094517;28;20111;-75
2022/01/27 05:08:24;;;;;;;46.30;21.23;;;5.40;99.90;;;;;;5094597;28;20067;-75
2022/01/27 05:10:58;;;;;;;42.78;20.55;;;5.40;99.90;;;;;;5077696;28;20028;-74
2022/01/27 05:13:27;;;;;;;45.33;20.92;;;5.40;99.90;;;;;;5089759;28;20549;-74
2022/01/27 05:15:53;;;;;;;37.17;18.05;;;5.30;99.90;;;;;;5073897;28;20027;-74
2022/01/27 05:18:20;;;;;;;47.35;21.65;;;5.40;99.90;;;;;;5074092;28;20074;-73
2022/01/27 05:20:46;;;;;;;49.63;23.05;;;5.40;99.90;;;;;;5074085;28;20033;-73
2022/01/27 05:23:12;;;;;;;49.65;21.67;;;5.40;99.90;;;;;;5073961;28;20051;-73
2022/01/27 05:25:39;;;;;;;47.03;19.48;;;5.40;99.90;;;;;;5073880;28;20366;-74
2022/01/27 05:28:06;;;;;;;54.17;24.73;;;5.40;99.90;;;;;;5093924;28;20093;-72
2022/01/27 05:30:32;;;;;;;35.28;14.68;;;5.50;99.90;;;;;;5093946;28;20393;-74
2022/01/27 05:32:58;;;;;;;46.47;22.60;;;5.50;99.90;;;;;;5094165;28;20434;-73
2022/01/27 05:35:24;;;;;;;48.22;20.15;;;5.40;99.90;;;;;;5092916;28;20020;-74
2022/01/27 05:37:49;;;;;;;47.83;23.80;;;5.50;99.90;;;;;;5094085;28;20028;-75
2022/01/27 05:40:15;;;;;;;52.60;23.05;;;5.50;99.90;;;;;;5095403;28;20486;-74
2022/01/27 05:42:41;;;;;;;45.53;24.33;;;5.50;99.90;;;;;;5093830;28;20028;-74
2022/01/27 05:45:07;;;;;;;48.22;24.45;;;5.60;99.90;;;;;;5093790;28;20027;-74
2022/01/27 05:47:33;;;;;;;44.67;21.38;;;5.60;99.90;;;;;;5093883;28;20481;-74
2022/01/27 05:49:59;;;;;;;48.30;25.15;;;5.60;99.90;;;;;;5093649;28;20028;-74
2022/01/27 05:52:26;;;;;;;51.70;19.92;;;5.60;99.90;;;;;;5092521;28;20069;-74
2022/01/27 05:54:51;;;;;;;50.78;23.67;;;5.60;99.90;;;;;;5093660;28;20040;-74
2022/01/27 05:57:17;;;;;;;53.72;24.65;;;5.70;99.90;;;;;;5092088;28;20119;-74
2022/01/27 05:59:43;;;;;;;54.03;25.77;;;5.80;99.90;;;;;;5093723;28;20032;-74
2022/01/27 06:02:08;;;;;;;55.10;27.40;;;5.80;99.90;;;;;;5092267;28;20028;-74
2022/01/27 06:04:34;;;;;;;47.00;22.08;;;5.80;99.90;;;;;;5093347;28;20066;-74
2022/01/27 06:07:00;;;;;;;51.85;26.05;;;5.80;99.90;;;;;;5093427;28;20051;-74
2022/01/27 06:09:26;;;;;;;48.53;22.35;;;5.80;99.90;;;;;;5089769;28;20491;-75
2022/01/27 06:11:52;;;;;;;54.00;23.73;;;5.80;99.90;;;;;;5072890;28;20036;-74
2022/01/27 06:14:18;;;;;;;49.50;25.00;;;5.90;99.90;;;;;;5073074;28;20028;-74
2022/01/27 06:16:45;;;;;;;52.10;25.80;;;5.90;99.90;;;;;;5073243;28;20060;-74
2022/01/27 06:19:11;;;;;;;50.17;24.70;;;5.90;99.90;;;;;;5072809;28;20024;-73
2022/01/27 06:21:37;;;;;;;50.85;23.77;;;6.00;99.90;;;;;;5072970;28;20114;-74
2022/01/27 06:24:03;;;;;;;58.58;24.25;;;6.00;99.90;;;;;;5072911;28;20063;-74
2022/01/27 06:26:29;;;;;;;50.40;24.27;;;6.10;99.90;;;;;;5079405;28;20097;-74
2022/01/27 06:28:56;;;;;;;36.55;18.75;;;6.10;99.90;;;;;;5092991;28;20034;-74
2022/01/27 06:31:22;;;;;;;46.85;22.17;;;6.10;99.90;;;;;;5093076;28;20039;-74
2022/01/27 06:33:48;;;;;;;52.70;25.83;;;6.10;99.90;;;;;;5092845;28;20028;-74
2022/01/27 06:36:14;;;;;;;52.92;25.15;;;6.10;99.90;;;;;;5093008;28;20077;-74
2022/01/27 06:38:41;;;;;;;51.70;24.38;;;6.10;99.90;;;;;;5093065;28;20040;-74
2022/01/27 06:41:06;;;;;;;55.47;23.35;;;6.20;99.90;;;;;;5092585;28;20022;-74
2022/01/27 06:43:32;;;;;;;48.78;23.52;;;6.20;99.90;;;;;;5092803;28;20123;-74
2022/01/27 06:45:58;;;;;;;51.95;24.65;;;6.20;99.90;;;;;;5092739;28;20099;-73
2022/01/27 06:48:23;;;;;;;51.53;24.73;;;6.10;99.90;;;;;;5093035;28;20025;-74
2022/01/27 06:50:54;;;;;;;45.58;21.60;;;6.20;99.90;;;;;;5092560;28;20031;-74
2022/01/27 06:53:20;;;;;;;52.40;24.25;;;6.30;99.90;;;;;;5090078;28;20089;-74
2022/01/27 06:55:46;;;;;;;53.65;25.75;;;6.20;99.90;;;;;;5090620;28;20071;-74
2022/01/27 06:58:12;;;;;;;52.42;23.85;;;6.30;99.90;;;;;;5091104;28;20098;-74
2022/01/27 07:00:38;;;;;;;52.75;24.45;;;6.30;99.90;;;;;;5077575;28;20073;-74
2022/01/27 07:03:04;;;;;;;51.67;24.90;;;6.30;99.90;;;;;;5076217;28;20028;-74
2022/01/27 07:05:32;;;;;;;44.08;21.98;;;6.30;99.90;;;;;;5076218;28;20119;-74
2022/01/27 07:07:58;;;;;;;51.47;19.38;;;6.30;99.90;;;;;;5076265;28;20059;-74
2022/01/27 07:10:24;;;;;;;46.75;21.85;;;6.30;99.90;;;;;;5087325;28;20032;-74
2022/01/27 07:12:50;;;;;;;53.55;23.52;;;6.30;99.90;;;;;;5092202;28;20040;-74
2022/01/27 07:15:15;;;;;;;52.35;22.58;;;6.40;99.90;;;;;;5075364;28;20021;-74
2022/01/27 07:17:41;;;;;;;46.08;19.15;;;6.40;99.90;;;;;;5074568;28;20064;-73
2022/01/27 07:20:07;;;;;;;51.33;22.67;;;6.40;99.90;;;;;;5074649;28;20032;-74
2022/01/27 07:22:35;;;;;;;45.63;22.38;;;6.40;99.90;;;;;;5082522;28;20460;-74
2022/01/27 07:25:03;;;;;;;46.78;20.00;;;6.50;99.90;;;;;;5082421;28;20020;-73
2022/01/27 07:27:30;;;;;;;46.35;20.00;;;6.50;99.90;;;;;;5095757;28;20119;-74
2022/01/27 07:29:56;;;;;;;52.38;21.15;;;6.50;99.90;;;;;;5096163;28;20039;-74
2022/01/27 07:32:22;;;;;;;50.25;20.75;;;6.50;99.90;;;;;;5095632;28;20024;-74
2022/01/27 07:34:48;;;;;;;45.03;21.48;;;6.50;99.90;;;;;;5096041;28;20024;-74
2022/01/27 07:37:13;;;;;;;42.35;20.23;;;6.50;99.90;;;;;;5095794;28;20028;-74
2022/01/27 07:39:39;;;;;;;46.55;20.95;;;6.60;99.90;;;;;;5095727;28;20032;-73
2022/01/27 07:42:05;;;;;;;49.15;20.65;;;6.70;99.90;;;;;;5095362;28;20460;-74
2022/01/27 07:44:34;;;;;;;32.60;13.80;;;6.70;99.90;;;;;;5094615;28;20077;-74
2022/01/27 07:47:00;;;;;;;44.58;20.65;;;6.60;99.90;;;;;;5095709;28;20384;-73
2022/01/27 07:49:26;;;;;;;48.92;19.55;;;6.70;99.90;;;;;;5094372;28;20024;-73
2022/01/27 07:51:52;;;;;;;55.15;20.88;;;6.70;99.90;;;;;;5095239;28;20043;-73
2022/01/27 07:54:18;;;;;;;42.05;20.35;;;6.70;99.90;;;;;;5077883;28;20077;-74
2022/01/27 07:56:43;;;;;;;48.22;21.65;;;6.70;99.90;;;;;;5089323;28;20115;-73
2022/01/27 07:59:09;;;;;;;41.95;19.45;;;6.70;99.90;;;;;;5095342;28;20039;-73
2022/01/27 08:01:35;;;;;;;37.80;19.83;;;6.70;99.90;;;;;;5086937;28;20039;-74
2022/01/27 08:04:00;;;;;;;41.45;20.27;;;6.70;99.90;;;;;;5057188;28;20059;-73
2022/01/27 08:06:26;;;;;;;49.65;22.13;;;6.80;99.90;;;;;;5075002;28;20476;-73
2022/01/27 08:08:52;;;;;;;51.70;20.00;;;6.70;99.90;;;;;;5074617;28;20028;-74
2022/01/27 08:11:19;;;;;;;43.30;16.35;;;6.70;99.90;;;;;;5092973;28;20040;-72
2022/01/27 08:13:45;;;;;;;48.47;19.95;;;6.70;99.90;;;;;;5095041;28;20021;-73
2022/01/27 08:16:11;;;;;;;41.15;18.42;;;6.70;99.90;;;;;;5095169;28;20117;-74
2022/01/27 08:18:37;;;;;;;46.85;20.25;;;6.70;99.90;;;;;;5093739;28;20039;-73
2022/01/27 08:21:03;;;;;;;48.75;21.17;;;6.70;99.90;;;;;;5094947;28;20036;-74
2022/01/27 08:23:29;;;;;;;41.60;16.38;;;6.80;99.90;;;;;;5093153;28;20031;-74
2022/01/27 08:26:07;;;;;;;47.30;19.63;;;6.80;99.90;;;;;;5094843;28;20072;-72
2022/01/27 08:28:40;;;;;;;41.88;19.95;;;6.80;99.90;;;;;;5094971;28;20039;-73
2022/01/27 08:31:06;;;;;;;42.30;18.95;;;6.80;99.90;;;;;;5094755;28;20028;-73
2022/01/27 08:33:32;;;;;;;47.00;20.20;;;6.80;99.90;;;;;;5094781;28;20036;-73
2022/01/27 08:35:59;;;;;;;47.35;20.80;;;6.80;99.90;;;;;;5090886;28;20027;-74
2022/01/27 08:38:28;;;;;;;42.45;19.80;;;6.70;99.90;;;;;;5074101;28;20040;-73
2022/01/27 08:40:54;;;;;;;35.78;16.27;;;6.60;99.90;;;;;;5074554;28;20032;-73
2022/01/27 08:43:20;;;;;;;44.08;19.35;;;6.60;99.90;;;;;;5074432;28;20032;-74
2022/01/27 08:45:46;;;;;;;53.53;21.60;;;6.50;99.90;;;;;;5074500;28;20099;-73
2022/01/27 08:48:17;;;;;;;52.67;23.13;;;6.60;99.90;;;;;;5074398;28;20070;-72
2022/01/27 08:50:49;;;;;;;53.03;21.70;;;6.50;99.90;;;;;;5074657;28;20116;-72
2022/01/27 08:53:15;;;;;;;60.40;25.15;;;6.50;99.90;;;;;;5072399;28;20044;-72
2022/01/27 08:55:44;;;;;;;55.22;24.23;;;6.50;99.90;;;;;;5072351;28;20020;-73
2022/01/27 08:58:10;;;;;;;60.25;24.10;;;6.50;99.90;;;;;;5073237;28;20036;-72
2022/01/27 09:00:36;;;;;;;56.70;24.58;;;6.40;99.90;;;;;;5074041;28;20104;-73
2022/01/27 09:03:01;;;;;;;56.85;22.90;;;6.50;99.90;;;;;;5074575;28;20154;-72
2022/01/27 09:05:27;;;;;;;64.90;26.70;;;6.40;99.90;;;;;;5090487;28;20024;-74
2022/01/27 09:07:56;;;;;;;66.72;26.02;;;6.50;99.90;;;;;;5094498;28;20032;-74
2022/01/27 09:10:23;;;;;;;56.95;25.40;;;6.40;99.90;;;;;;5082755;28;20557;-73
2022/01/27 09:12:49;;;;;;;66.53;27.75;;;6.50;99.90;;;;;;5072800;28;20122;-73
2022/01/27 09:15:15;;;;;;;67.65;28.60;;;6.50;99.90;;;;;;5074450;28;20033;-73
2022/01/27 09:17:40;;;;;;;51.92;24.00;;;6.50;99.90;;;;;;5072720;28;20036;-73
2022/01/27 09:20:11;;;;;;;63.97;29.05;;;6.50;99.90;;;;;;5073699;28;20033;-73
2022/01/27 09:22:38;;;;;;;64.63;24.73;;;6.50;99.90;;;;;;5073731;28;20056;-73
2022/01/27 09:25:20;;;;;;;58.55;26.50;;;6.50;99.90;;;;;;5073629;28;20051;-73
2022/01/27 09:27:46;;;;;;;71.80;27.77;;;6.50;99.90;;;;;;5091456;28;20032;-74
2022/01/27 09:30:15;;;;;;;61.78;27.92;;;6.50;99.90;;;;;;5093920;28;20028;-72
2022/01/27 09:32:41;;;;;;;60.88;27.17;;;6.60;99.90;;;;;;5094144;28;20032;-73
2022/01/27 09:35:07;;;;;;;56.88;24.70;;;6.50;99.90;;;;;;5091803;28;20047;-72
2022/01/27 09:37:33;;;;;;;41.10;19.42;;;6.50;99.90;;;;;;5093236;28;20471;-74
2022/01/27 09:39:59;;;;;;;64.60;28.25;;;6.50;99.90;;;;;;5079786;28;20038;-73
2022/01/27 09:42:28;;;;;;;66.40;27.40;;;6.60;99.90;;;;;;5073600;28;20029;-74
2022/01/27 09:44:54;;;;;;;64.90;25.85;;;6.60;99.90;;;;;;5073895;28;20731;-74
2022/01/27 09:47:25;;;;;;;51.05;21.73;;;6.60;99.90;;;;;;5073429;28;20413;-74
2022/01/27 09:50:03;;;;;;;59.65;25.70;;;6.60;99.90;;;;;;5071688;28;20380;-73
2022/01/27 09:52:29;;;;;;;66.82;26.20;;;6.60;99.90;;;;;;5073377;28;20044;-73
2022/01/27 09:54:55;;;;;;;59.88;26.45;;;6.60;99.90;;;;;;5073334;28;20134;-74
2022/01/27 09:57:20;;;;;;;56.75;26.02;;;6.70;99.90;;;;;;5071914;28;20039;-73
2022/01/27 09:59:47;;;;;;;60.53;26.65;;;6.70;99.90;;;;;;5073189;28;20036;-74
2022/01/27 10:02:18;;;;;;;54.70;25.65;;;6.70;99.90;;;;;;5072961;28;20504;-72
2022/01/27 10:04:49;;;;;;;52.30;24.92;;;6.80;99.90;;;;;;5070548;28;20033;-73
2022/01/27 10:07:18;;;;;;;54.77;25.97;;;6.80;99.90;;;;;;5092513;28;20031;-73
2022/01/27 10:09:57;;;;;;;56.83;23.17;;;6.80;99.90;;;;;;5086358;28;20078;-74
2022/01/27 10:12:29;;;;;;;61.17;25.95;;;6.90;99.90;;;;;;5071750;28;20032;-73
2022/01/27 10:15:00;;;;;;;47.95;18.77;;;7.00;99.90;;;;;;5072872;28;20029;-73
2022/01/27 10:17:26;;;;;;;46.97;23.83;;;6.80;99.90;;;;;;5071689;28;20044;-72
2022/01/27 10:19:53;;;;;;;51.70;25.35;;;6.90;99.90;;;;;;5071062;28;20025;-73
2022/01/27 10:22:19;;;;;;;49.83;22.23;;;7.00;99.90;;;;;;5073161;28;20051;-72
2022/01/27 10:24:45;;;;;;;56.78;25.58;;;6.90;99.90;;;;;;5072911;28;20103;-73
2022/01/27 10:27:46;;;;;;;58.13;26.88;;;6.90;99.90;;;;;;5085711;28;20039;-74
2022/01/27 10:32:51;;;;;;;52.90;24.70;;;7.00;99.90;;;;;;5093922;28;20047;-73
2022/01/27 10:35:20;;;;;;;61.72;24.88;;;7.00;99.90;;;;;;5090978;28;20156;-74
2022/01/27 10:37:58;;;;;;;55.80;25.65;;;7.00;99.90;;;;;;5093152;28;20043;-73
2022/01/27 10:40:39;;;;;;;57.03;21.35;;;7.00;99.90;;;;;;5093424;28;20093;-73
2022/01/27 10:43:09;;;;;;;60.67;25.05;;;7.10;99.90;;;;;;5093741;28;20039;-73
2022/01/27 10:45:38;;;;;;;50.95;21.33;;;7.10;99.90;;;;;;5093921;28;20032;-74
2022/01/27 10:48:20;;;;;;;41.25;20.50;;;7.10;99.90;;;;;;5092923;28;20028;-73
2022/01/27 10:51:13;;;;;;;55.25;22.05;;;7.20;99.90;;;;;;5093107;28;20050;-73
2022/01/27 10:53:54;;;;;;;53.78;21.63;;;7.20;99.90;;;;;;5093626;28;20036;-73
2022/01/27 10:56:28;;;;;;;41.28;17.08;;;7.20;99.90;;;;;;5093599;28;20498;-73
2022/01/27 10:58:56;;;;;;;47.00;21.92;;;7.20;99.90;;;;;;5093714;28;20044;-73
2022/01/27 11:01:24;;;;;;;41.17;19.70;;;7.30;99.90;;;;;;5093286;28;20040;-73
2022/01/27 11:03:52;;;;;;;41.70;19.15;;;7.20;99.90;;;;;;5074756;28;20033;-73
2022/01/27 11:06:24;;;;;;;47.65;21.70;;;7.30;99.90;;;;;;5083981;28;20117;-74
2022/01/27 11:08:54;;;;;;;;;;;7.30;99.90;;;;;;5093305;28;20448;-73
2022/01/27 11:11:22;;;;;;;45.95;19.55;;;7.30;99.90;;;;;;5072750;28;19908;-73
2022/01/27 11:13:49;;;;;;;47.72;21.10;;;7.30;99.90;;;;;;5072103;28;20036;-73
2022/01/27 11:16:18;;;;;;;42.80;21.27;;;7.40;99.90;;;;;;5072068;28;20384;-73
2022/01/27 11:18:47;;;;;;;46.47;20.85;;;7.40;99.90;;;;;;5072507;28;20036;-73
2022/01/27 11:21:33;;;;;;;45.38;21.17;;;7.40;99.90;;;;;;5072186;28;20033;-73
2022/01/27 11:24:06;;;;;;;37.95;17.92;;;7.40;99.90;;;;;;5071798;28;20064;-74
2022/01/27 11:26:34;;;;;;;45.10;19.73;;;7.60;99.90;;;;;;5079236;28;20472;-73
2022/01/27 11:29:02;;;;;;;38.83;20.60;;;7.60;99.90;;;;;;5092466;28;20103;-74
2022/01/27 11:31:54;;;;;;;47.38;22.63;;;7.60;99.90;;;;;;5091067;28;20082;-73
2022/01/27 11:34:19;;;;;;;47.08;20.60;;;7.60;99.90;;;;;;5091861;28;20032;-73
2022/01/27 11:37:00;;;;;;;37.55;19.13;;;7.70;99.90;;;;;;5086848;28;20086;-72
2022/01/27 11:39:53;;;;;;;35.92;17.25;;;7.70;99.90;;;;;;5070363;28;20044;-73
2022/01/27 11:42:21;;;;;;;;;;;7.70;99.90;;;;;;5072497;28;20036;-73
2022/01/27 11:44:48;;;;;;;41.38;21.10;;;7.80;99.90;;;;;;5070865;28;19908;-73
2022/01/27 11:47:18;;;;;;;37.90;19.20;;;7.90;99.90;;;;;;5074564;28;20024;-73
2022/01/27 11:52:28;;;;;;;41.55;21.75;;;7.90;99.90;;;;;;5075678;28;20036;-73
2022/01/27 11:55:17;;;;;;;43.65;22.88;;;7.90;99.90;;;;;;5075802;28;20115;-72
2022/01/27 11:57:45;;;;;;;41.67;23.05;;;8.00;99.90;;;;;;5073988;28;20551;-73
2022/01/27 12:00:17;;;;;;;39.65;20.52;;;8.00;99.90;;;;;;5074016;28;20042;-72
2022/01/27 12:03:01;;;;;;;43.53;23.35;;;8.00;99.90;;;;;;5075449;28;20044;-73
2022/01/27 12:05:29;;;;;;;38.40;23.05;;;8.10;99.90;;;;;;5075402;28;20056;-73
2022/01/27 12:08:27;;;;;;;39.97;21.88;;;8.10;99.90;;;;;;5075416;28;20043;-73
2022/01/27 12:11:03;;;;;;;38.78;22.15;;;8.10;99.90;;;;;;5078650;28;20176;-73
2022/01/27 12:19:06;;;;;;;40.45;20.90;;;8.10;99.90;;;;;;5095133;28;20131;-72
2022/01/27 12:21:51;;;;;;;40.25;23.38;;;8.10;99.90;;;;;;5093888;28;20040;-72
2022/01/27 12:24:28;;;;;;;44.08;22.67;;;8.20;99.90;;;;;;5094274;28;20032;-73
2022/01/27 12:27:06;;;;;;;49.85;22.90;;;8.20;99.90;;;;;;5095182;28;20039;-72
2022/01/27 12:29:46;;;;;;;40.40;22.98;;;8.20;99.90;;;;;;5093755;28;20447;-72
2022/01/27 12:32:22;;;;;;;43.47;23.42;;;8.20;99.90;;;;;;5095122;28;20473;-73
2022/01/27 12:34:49;;;;;;;47.97;24.27;;;8.30;99.90;;;;;;5094991;28;20043;-72
2022/01/27 12:37:18;;;;;;;41.25;22.70;;;8.40;99.90;;;;;;5095181;28;20020;-73
2022/01/27 12:39:53;;;;;;;37.97;21.13;;;8.40;99.90;;;;;;5093709;28;20040;-73
2022/01/27 12:42:20;;;;;;;45.25;20.08;;;8.40;99.90;;;;;;5095051;28;20031;-73
2022/01/27 12:44:53;;;;;;;37.65;15.95;;;8.40;99.90;;;;;;5094865;28;20034;-73
2022/01/27 12:47:19;;;;;;;38.72;16.85;;;8.30;99.90;;;;;;5095043;28;20114;-73
2022/01/27 12:50:02;;;;;;;28.55;16.75;;;8.40;99.90;;;;;;5094888;28;20091;-72
2022/01/27 12:52:31;;;;;;;47.03;17.42;;;8.40;99.90;;;;;;5094997;28;20400;-73
2022/01/27 12:54:57;;;;;;;35.78;15.45;;;8.40;99.90;;;;;;5094722;28;20059;-72
2022/01/27 12:57:28;;;;;;;26.85;12.55;;;8.40;99.90;;;;;;5092762;28;20060;-73
2022/01/27 12:59:55;;;;;;;26.55;13.25;;;8.40;99.90;;;;;;5094556;28;20483;-71
2022/01/27 13:02:23;;;;;;;25.05;12.20;;;8.40;99.90;;;;;;5093692;28;20468;-73
2022/01/27 13:04:55;;;;;;;30.20;13.00;;;8.50;99.90;;;;;;5094991;28;20438;-73
2022/01/27 13:07:22;;;;;;;;;;;8.40;99.90;;;;;;5095218;28;20038;-73
2022/01/27 13:09:59;;;;;;;16.77;7.85;;;8.50;99.90;;;;;;5091417;28;19915;-73
2022/01/27 13:12:30;;;;;;;22.35;10.55;;;8.60;99.90;;;;;;5094263;28;20064;-73
2022/01/27 13:15:10;;;;;;;12.68;8.15;;;8.60;99.90;;;;;;5093263;28;20036;-73
2022/01/27 13:20:17;;;;;;;32.70;11.80;;;8.60;99.90;;;;;;5094456;28;20043;-72
2022/01/27 13:22:51;;;;;;;24.05;9.68;;;8.60;99.90;;;;;;5094548;28;20028;-73
2022/01/27 13:25:19;;;;;;;30.27;10.88;;;8.60;99.90;;;;;;5094064;28;20174;-73
2022/01/27 13:28:04;;;;;;;21.00;8.90;;;8.60;99.90;;;;;;5093847;28;20376;-73
2022/01/27 13:30:31;;;;;;;16.55;7.82;;;8.60;99.90;;;;;;5094222;28;20035;-73
2022/01/27 13:32:58;;;;;;;25.38;10.25;;;8.70;99.90;;;;;;5094358;28;20030;-73
2022/01/27 13:35:23;;;;;;;25.02;9.10;;;8.70;99.90;;;;;;5093644;28;20031;-73
2022/01/27 13:37:49;;;;;;;27.83;10.10;;;8.70;99.90;;;;;;5093895;28;20080;-73